createdAt,value
2022-10-16T00:07:08.723Z,47.8
2022-10-16T00:38:10.603Z,46.7
2022-10-16T01:08:12.462Z,47.8
2022-10-16T01:41:14.665Z,47.8
2022-10-16T02:12:16.583Z,48.3
2022-10-16T02:45:18.511Z,47.8
2022-10-16T03:15:20.622Z,48.9
2022-10-16T03:45:22.480Z,47.8
2022-10-16T04:15:24.203Z,47.8
2022-10-16T04:45:26.032Z,48.3
2022-10-16T05:15:27.951Z,46.7
2022-10-16T06:10:01.071Z,45.1
2022-10-16T06:41:02.987Z,48.3
2022-10-16T07:11:05.050Z,49.9
2022-10-16T07:41:06.592Z,51
2022-10-16T08:11:08.442Z,53.2
2022-10-16T08:45:10.554Z,53.2
2022-10-16T09:15:12.762Z,55.8
2022-10-16T09:49:14.569Z,55.3
2022-10-16T10:19:16.431Z,57.5
2022-10-16T10:49:18.270Z,57.5
2022-10-16T11:19:20.197Z,59.1
2022-10-16T11:54:22.556Z,60.1
2022-10-16T12:26:24.343Z,59.6
2022-10-16T12:56:26.506Z,63.9
2022-10-16T13:26:28.259Z,61.8
2022-10-16T13:57:30.068Z,60.1
2022-10-16T14:27:31.797Z,63.9
2022-10-16T14:57:33.712Z,58.5
2022-10-16T15:28:35.551Z,56.9
2022-10-16T16:00:37.520Z,53.2
2022-10-16T16:30:39.330Z,51.5
2022-10-16T17:00:41.228Z,50.5
2022-10-16T17:30:43.138Z,47.8
2022-10-16T18:04:45.316Z,46.7
2022-10-16T18:34:47.126Z,46.2
2022-10-16T19:05:48.921Z,45.6
2022-10-16T19:35:50.859Z,46.2
2022-10-16T20:05:52.756Z,45.1
2022-10-16T20:41:54.820Z,44.5
2022-10-16T21:11:56.572Z,44
2022-10-16T21:42:58.520Z,44
2022-10-16T22:14:00.449Z,45.1
2022-10-16T22:45:02.441Z,44.5
2022-10-16T23:19:04.627Z,45.1
2022-10-16T23:54:06.859Z,44.5
